Time;durP1;ratioP1;P1;durP2;ratioP2;P2;SDS_P1;SDS_P2;PMS_P1;PMS_P2;Temp;Humidity;BMP_temperature;BMP_pressure;BME280_temperature;BME280_humidity;BME280_pressure;Samples;Min_cycle;Max_cycle;Signal;HPM_P1;HPM_P2
2022/12/05 00:01:19;;;;;;;15.38;8.25;;;;;;;;;;4998313;28;20046;-65
2022/12/05 00:03:46;;;;;;;12.50;8.15;;;;;;;;;;4993191;28;20046;-66
2022/12/05 00:06:12;;;;;;;15.30;8.77;;;;;;;;;;4993696;28;20603;-66
2022/12/05 00:08:38;;;;;;;14.18;8.32;;;;;;;;;;4992406;28;20049;-65
2022/12/05 00:11:10;;;;;;;15.57;8.50;;;;;;;;;;4989421;28;20076;-65
2022/12/05 00:13:38;;;;;;;15.48;9.48;;;;;;;;;;5000107;28;20501;-64
2022/12/05 00:16:07;;;;;;;12.88;8.35;;;;;;;;;;4997659;28;20065;-67
2022/12/05 00:18:34;;;;;;;15.07;9.57;;;;;;;;;;4996244;28;20046;-64
2022/12/05 00:21:00;;;;;;;15.18;8.93;;;;;;;;;;4992015;28;20046;-65
2022/12/05 00:23:26;;;;;;;12.88;8.82;;;;;;;;;;4996558;28;20095;-64
2022/12/05 00:25:51;;;;;;;13.10;8.77;;;;;;;;;;5004532;28;20365;-66
2022/12/05 00:28:17;;;;;;;11.60;8.20;;;;;;;;;;4997827;28;20053;-68
2022/12/05 00:30:43;;;;;;;16.25;9.27;;;;;;;;;;5003132;28;20053;-67
2022/12/05 00:33:09;;;;;;;14.13;8.98;;;;;;;;;;5001717;28;20058;-65
2022/12/05 00:35:35;;;;;;;12.32;8.85;;;;;;;;;;5002280;28;20053;-63
2022/12/05 00:38:01;;;;;;;16.55;9.23;;;;;;;;;;4994212;28;20185;-65
2022/12/05 00:40:26;;;;;;;14.40;9.10;;;;;;;;;;4983820;28;20133;-63
2022/12/05 00:42:52;;;;;;;13.43;8.00;;;;;;;;;;4999647;28;20053;-64
2022/12/05 00:45:18;;;;;;;13.85;8.45;;;;;;;;;;4995410;28;20050;-67
2022/12/05 00:47:44;;;;;;;15.15;8.43;;;;;;;;;;4981263;28;20533;-64
2022/12/05 00:50:10;;;;;;;11.55;8.45;;;;;;;;;;4994643;28;20054;-65
2022/12/05 00:52:36;;;;;;;17.48;8.57;;;;;;;;;;4974543;28;20533;-63
2022/12/05 00:55:02;;;;;;;14.68;8.60;;;;;;;;;;4996030;28;20058;-66
2022/12/05 00:57:28;;;;;;;10.45;8.00;;;;;;;;;;5006442;28;20069;-67
2022/12/05 00:59:54;;;;;;;13.27;8.35;;;;;;;;;;4998181;28;20042;-65
2022/12/05 01:02:20;;;;;;;13.95;8.05;;;;;;;;;;4998503;28;20042;-64
2022/12/05 01:04:46;;;;;;;12.85;7.82;;;;;;;;;;4993815;28;20425;-64
2022/12/05 01:07:12;;;;;;;11.73;8.38;;;;;;;;;;4978544;28;20073;-67
2022/12/05 01:09:37;;;;;;;16.08;8.23;;;;;;;;;;4998536;28;20042;-66
2022/12/05 01:12:04;;;;;;;11.60;8.25;;;;;;;;;;4999525;28;20057;-65
2022/12/05 01:14:30;;;;;;;11.35;7.75;;;;;;;;;;4999190;28;20124;-65
2022/12/05 01:16:56;;;;;;;11.95;7.43;;;;;;;;;;4997832;28;20513;-64
2022/12/05 01:19:25;;;;;;;14.98;8.10;;;;;;;;;;4990821;28;20061;-66
2022/12/05 01:21:52;;;;;;;11.80;7.53;;;;;;;;;;4992286;28;20046;-64
2022/12/05 01:24:19;;;;;;;11.90;7.40;;;;;;;;;;4995893;28;20069;-65
2022/12/05 01:26:45;;;;;;;11.90;7.63;;;;;;;;;;4975394;28;20057;-69
2022/12/05 01:29:13;;;;;;;12.35;7.45;;;;;;;;;;4996776;28;20049;-66
2022/12/05 01:31:40;;;;;;;11.25;7.20;;;;;;;;;;4993399;28;20066;-64
2022/12/05 01:34:08;;;;;;;12.85;7.45;;;;;;;;;;4993187;28;20137;-66
2022/12/05 01:36:35;;;;;;;11.18;6.72;;;;;;;;;;4994781;28;20480;-64
2022/12/05 01:39:02;;;;;;;10.27;6.88;;;;;;;;;;4997101;28;20045;-64
2022/12/05 01:41:32;;;;;;;13.07;7.38;;;;;;;;;;4998898;28;20841;-64
2022/12/05 01:44:26;;;;;;;13.40;6.55;;;;;;;;;;5002800;28;20054;-63
2022/12/05 01:46:53;;;;;;;;;;;;;;;;;;4997579;28;20079;-65
2022/12/05 01:49:31;;;;;;;9.73;6.18;;;;;;;;;;4998879;28;20007;-64
2022/12/05 01:52:12;;;;;;;9.23;6.45;;;;;;;;;;4999846;28;20061;-65
2022/12/05 01:54:38;;;;;;;9.68;6.80;;;;;;;;;;4979594;28;20038;-64
2022/12/05 01:57:10;;;;;;;9.27;6.60;;;;;;;;;;5004079;28;20085;-62
2022/12/05 01:59:40;;;;;;;11.38;6.95;;;;;;;;;;5003548;28;20305;-66
2022/12/05 02:02:06;;;;;;;10.65;6.53;;;;;;;;;;5001607;28;20045;-64
2022/12/05 02:04:42;;;;;;;12.07;6.45;;;;;;;;;;4997347;28;20057;-65
2022/12/05 02:07:09;;;;;;;11.45;6.88;;;;;;;;;;5001092;28;20038;-64
2022/12/05 02:09:35;;;;;;;10.48;7.25;;;;;;;;;;4984331;28;20056;-67
2022/12/05 02:12:02;;;;;;;10.75;6.38;;;;;;;;;;5002679;28;20408;-63
2022/12/05 02:14:34;;;;;;;14.63;7.18;;;;;;;;;;5003408;28;20057;-66
2022/12/05 02:17:21;;;;;;;9.45;6.65;;;;;;;;;;5001311;28;20050;-64
2022/12/05 02:19:59;;;;;;;12.57;6.90;;;;;;;;;;5001465;28;20583;-63
2022/12/05 02:22:53;;;;;;;15.00;7.18;;;;;;;;;;4996128;28;20045;-64
2022/12/05 02:25:24;;;;;;;13.55;7.38;;;;;;;;;;4999814;28;20179;-64
2022/12/05 02:28:03;;;;;;;12.25;7.38;;;;;;;;;;5004845;28;20057;-65
2022/12/05 02:30:50;;;;;;;9.30;6.95;;;;;;;;;;4985553;28;20038;-66
2022/12/05 02:33:33;;;;;;;12.98;7.35;;;;;;;;;;5004220;28;20061;-69
2022/12/05 02:36:14;;;;;;;15.07;6.85;;;;;;;;;;4994951;28;20100;-64
2022/12/05 02:38:49;;;;;;;11.25;7.32;;;;;;;;;;4994590;28;20352;-66
2022/12/05 02:41:36;;;;;;;11.57;6.95;;;;;;;;;;4995074;28;20161;-64
2022/12/05 02:44:37;;;;;;;11.88;6.63;;;;;;;;;;4992881;28;20046;-63
2022/12/05 02:47:06;;;;;;;10.18;7.03;;;;;;;;;;4989878;28;20124;-65
2022/12/05 02:49:35;;;;;;;10.98;7.78;;;;;;;;;;4980636;28;20342;-64
2022/12/05 02:52:05;;;;;;;10.43;7.15;;;;;;;;;;4981228;28;20076;-65
2022/12/05 02:54:36;;;;;;;10.45;7.03;;;;;;;;;;4994561;28;20053;-62
2022/12/05 02:57:02;;;;;;;9.85;6.80;;;;;;;;;;4994864;28;20046;-66
2022/12/05 02:59:28;;;;;;;9.32;6.57;;;;;;;;;;4977865;28;20057;-65
2022/12/05 03:01:55;;;;;;;9.75;7.18;;;;;;;;;;4999333;28;20406;-68
2022/12/05 03:04:23;;;;;;;10.23;7.30;;;;;;;;;;4996378;28;20057;-64
2022/12/05 03:06:57;;;;;;;12.23;7.72;;;;;;;;;;4996277;28;20514;-65
2022/12/05 03:09:41;;;;;;;;;;;;;;;;;;4997027;28;20042;-65
2022/12/05 03:12:16;;;;;;;10.73;7.15;;;;;;;;;;4997847;28;20515;-64
2022/12/05 03:14:47;;;;;;;11.68;7.55;;;;;;;;;;4999496;28;20062;-64
2022/12/05 03:17:20;;;;;;;12.85;8.15;;;;;;;;;;4994985;28;20735;-65
2022/12/05 03:20:04;;;;;;;13.60;7.95;;;;;;;;;;5000491;28;20046;-65
2022/12/05 03:22:38;;;;;;;12.63;7.20;;;;;;;;;;4993470;28;20437;-64
2022/12/05 03:25:05;;;;;;;14.32;6.93;;;;;;;;;;4996305;28;20858;-65
2022/12/05 03:27:31;;;;;;;9.52;6.55;;;;;;;;;;5002833;28;20056;-65
2022/12/05 03:30:04;;;;;;;12.45;7.15;;;;;;;;;;4998516;28;21501;-64
2022/12/05 03:32:44;;;;;;;11.07;6.95;;;;;;;;;;4994128;28;20056;-64
2022/12/05 03:35:51;;;;;;;11.48;6.82;;;;;;;;;;4999491;28;20438;-63
2022/12/05 03:38:25;;;;;;;11.95;7.30;;;;;;;;;;4978464;28;20060;-64
2022/12/05 03:41:18;;;;;;;12.13;7.00;;;;;;;;;;4995346;28;20066;-68
2022/12/05 03:44:00;;;;;;;10.40;7.47;;;;;;;;;;4977428;28;20112;-65
2022/12/05 03:46:58;;;;;;;11.18;7.47;;;;;;;;;;4998935;28;20045;-63
2022/12/05 03:49:42;;;;;;;11.35;7.80;;;;;;;;;;4974388;28;20225;-65
2022/12/05 03:52:12;;;;;;;12.75;8.07;;;;;;;;;;4995364;28;20103;-63
2022/12/05 03:54:55;;;;;;;11.63;7.90;;;;;;;;;;4994190;28;20057;-63
2022/12/05 03:57:34;;;;;;;10.15;7.43;;;;;;;;;;4998473;28;20062;-63
2022/12/05 04:00:29;;;;;;;13.32;7.68;;;;;;;;;;4994862;28;20053;-64
2022/12/05 04:03:16;;;;;;;14.13;7.13;;;;;;;;;;4992523;28;20497;-64
2022/12/05 04:05:47;;;;;;;10.05;7.20;;;;;;;;;;4996900;28;20576;-63
2022/12/05 04:08:27;;;;;;;9.15;6.70;;;;;;;;;;4999423;28;20046;-64
2022/12/05 04:10:59;;;;;;;11.07;7.30;;;;;;;;;;4988877;28;20555;-64
2022/12/05 04:13:34;;;;;;;9.75;6.97;;;;;;;;;;4992072;28;20046;-64
2022/12/05 04:19:24;;;;;;;8.00;6.43;;;;;;;;;;5000867;28;20440;-64
2022/12/05 04:21:54;;;;;;;11.32;6.80;;;;;;;;;;4989069;28;20138;-64
2022/12/05 04:27:26;;;;;;;9.27;6.28;;;;;;;;;;4999896;28;20532;-62
2022/12/05 04:30:03;;;;;;;11.15;6.63;;;;;;;;;;4992466;28;20081;-64
2022/12/05 04:32:48;;;;;;;8.60;5.82;;;;;;;;;;4993208;28;20053;-65
2022/12/05 04:35:26;;;;;;;8.65;6.13;;;;;;;;;;5000492;28;20057;-66
2022/12/05 04:37:58;;;;;;;12.43;6.50;;;;;;;;;;4995267;28;20121;-63
2022/12/05 04:40:40;;;;;;;9.93;5.90;;;;;;;;;;4995181;28;20204;-62
2022/12/05 04:43:08;;;;;;;10.70;6.00;;;;;;;;;;4994293;28;20058;-72
2022/12/05 04:45:36;;;;;;;10.20;6.20;;;;;;;;;;4995192;28;20133;-64
2022/12/05 04:48:10;;;;;;;10.05;5.75;;;;;;;;;;4998659;28;20416;-62
2022/12/05 04:50:38;;;;;;;8.07;6.00;;;;;;;;;;4993759;28;20775;-63
2022/12/05 04:53:05;;;;;;;10.50;6.43;;;;;;;;;;4991596;28;20600;-63
2022/12/05 04:55:35;;;;;;;11.00;5.85;;;;;;;;;;4977135;28;20057;-64
2022/12/05 04:58:09;;;;;;;8.80;6.05;;;;;;;;;;4997677;28;20050;-64
2022/12/05 05:00:54;;;;;;;;;;;;;;;;;;4995003;28;20073;-64
2022/12/05 05:03:49;;;;;;;9.45;5.95;;;;;;;;;;4994478;28;20015;-64
2022/12/05 05:06:16;;;;;;;10.00;6.38;;;;;;;;;;4978821;28;20129;-65
2022/12/05 05:08:50;;;;;;;10.27;6.05;;;;;;;;;;4995579;28;20050;-63
2022/12/05 05:11:20;;;;;;;8.32;5.90;;;;;;;;;;4993146;28;20057;-65
2022/12/05 05:13:47;;;;;;;12.15;6.07;;;;;;;;;;5003120;28;20042;-65
2022/12/05 05:16:27;;;;;;;9.75;6.07;;;;;;;;;;5004163;28;20584;-65
2022/12/05 05:18:53;;;;;;;8.45;6.30;;;;;;;;;;5004455;28;20563;-64
2022/12/05 05:21:28;;;;;;;10.45;6.18;;;;;;;;;;5003180;28;20493;-65
2022/12/05 05:23:54;;;;;;;10.15;6.65;;;;;;;;;;5000104;28;20043;-64
2022/12/05 05:26:21;;;;;;;10.48;6.40;;;;;;;;;;5002537;28;20089;-62
2022/12/05 05:28:48;;;;;;;11.05;6.35;;;;;;;;;;5002759;28;20497;-62
2022/12/05 05:31:15;;;;;;;10.07;5.95;;;;;;;;;;5007577;28;20055;-66
2022/12/05 05:33:41;;;;;;;8.38;6.03;;;;;;;;;;4997461;28;20046;-63
2022/12/05 05:36:09;;;;;;;9.75;6.20;;;;;;;;;;5003825;28;20049;-66
2022/12/05 05:38:44;;;;;;;10.15;6.28;;;;;;;;;;5001698;28;20692;-65
2022/12/05 05:41:22;;;;;;;15.00;6.72;;;;;;;;;;4999205;28;20465;-66
2022/12/05 05:43:48;;;;;;;11.20;6.32;;;;;;;;;;5003372;28;20513;-66
2022/12/05 05:46:17;;;;;;;9.68;6.18;;;;;;;;;;5001351;28;20046;-63
2022/12/05 05:48:42;;;;;;;10.38;6.13;;;;;;;;;;5004805;28;20045;-62
2022/12/05 05:51:10;;;;;;;9.02;6.53;;;;;;;;;;4998748;28;20060;-65
2022/12/05 05:53:37;;;;;;;10.05;6.32;;;;;;;;;;5004592;28;20138;-64
2022/12/05 05:56:05;;;;;;;11.00;6.68;;;;;;;;;;4998824;28;20042;-64
2022/12/05 05:58:31;;;;;;;9.07;6.03;;;;;;;;;;4996671;28;20054;-64
2022/12/05 06:01:05;;;;;;;10.45;6.38;;;;;;;;;;4998305;28;20089;-66
2022/12/05 06:03:31;;;;;;;9.03;6.13;;;;;;;;;;4998757;28;20104;-64
2022/12/05 06:05:59;;;;;;;9.68;6.15;;;;;;;;;;4998832;28;20299;-66
2022/12/05 06:08:27;;;;;;;10.50;6.40;;;;;;;;;;4996955;28;20055;-63
2022/12/05 06:10:53;;;;;;;12.13;6.65;;;;;;;;;;5000374;28;20041;-64
2022/12/05 06:13:19;;;;;;;12.98;6.43;;;;;;;;;;5002071;28;20053;-65
2022/12/05 06:15:45;;;;;;;11.13;6.35;;;;;;;;;;4997781;28;20054;-65
2022/12/05 06:18:11;;;;;;;9.88;6.07;;;;;;;;;;5001630;28;20934;-68
2022/12/05 06:20:37;;;;;;;9.95;6.15;;;;;;;;;;5002389;28;20045;-68
2022/12/05 06:23:03;;;;;;;9.20;6.13;;;;;;;;;;4999068;28;20120;-63
2022/12/05 06:25:29;;;;;;;14.15;6.70;;;;;;;;;;5004691;28;20042;-66
2022/12/05 06:27:55;;;;;;;9.13;6.60;;;;;;;;;;4998872;28;20096;-66
2022/12/05 06:30:21;;;;;;;8.98;6.07;;;;;;;;;;5005521;28;20468;-66
2022/12/05 06:32:46;;;;;;;8.77;6.40;;;;;;;;;;4998600;28;20066;-65
2022/12/05 06:35:15;;;;;;;8.85;6.25;;;;;;;;;;5001472;28;20109;-63
2022/12/05 06:37:42;;;;;;;10.95;6.88;;;;;;;;;;4999604;28;20136;-64
2022/12/05 06:40:10;;;;;;;10.48;6.60;;;;;;;;;;5004361;28;20057;-65
2022/12/05 06:42:35;;;;;;;13.05;6.80;;;;;;;;;;4996924;28;20501;-64
2022/12/05 06:45:03;;;;;;;12.00;7.00;;;;;;;;;;5002508;28;20050;-65
2022/12/05 06:47:28;;;;;;;9.90;6.22;;;;;;;;;;5001309;28;20394;-67
2022/12/05 06:49:54;;;;;;;11.05;6.45;;;;;;;;;;4989182;28;20386;-65
2022/12/05 06:52:20;;;;;;;7.63;5.80;;;;;;;;;;5006600;28;20076;-67
2022/12/05 06:54:46;;;;;;;10.60;6.32;;;;;;;;;;5002920;28;20161;-65
2022/12/05 06:57:13;;;;;;;8.20;5.95;;;;;;;;;;4999189;28;20124;-66
2022/12/05 06:59:39;;;;;;;8.63;6.13;;;;;;;;;;4997646;28;20057;-65
2022/12/05 07:02:07;;;;;;;13.32;6.82;;;;;;;;;;5001183;28;20072;-67
2022/12/05 07:04:33;;;;;;;11.80;7.25;;;;;;;;;;5001328;28;20088;-67
2022/12/05 07:07:01;;;;;;;10.13;6.07;;;;;;;;;;4997383;28;20088;-65
2022/12/05 07:09:50;;;;;;;11.60;6.40;;;;;;;;;;4986707;28;20042;-68
2022/12/05 07:12:18;;;;;;;12.55;6.68;;;;;;;;;;5001705;28;20054;-69
2022/12/05 07:14:45;;;;;;;9.43;5.82;;;;;;;;;;4995281;28;20054;-65
2022/12/05 07:17:10;;;;;;;11.35;6.40;;;;;;;;;;5001316;28;20054;-65
2022/12/05 07:19:36;;;;;;;9.25;6.20;;;;;;;;;;4991698;28;20058;-65
2022/12/05 07:22:02;;;;;;;14.93;6.68;;;;;;;;;;5001733;28;20049;-67
2022/12/05 07:24:29;;;;;;;9.20;6.30;;;;;;;;;;5002231;28;20351;-66
2022/12/05 07:26:54;;;;;;;9.93;6.45;;;;;;;;;;5001110;28;21532;-66
2022/12/05 07:29:21;;;;;;;10.73;6.10;;;;;;;;;;4996619;28;20061;-65
2022/12/05 07:31:46;;;;;;;9.02;6.07;;;;;;;;;;5000344;28;20121;-66
2022/12/05 07:34:12;;;;;;;13.52;5.70;;;;;;;;;;4997072;28;20057;-64
2022/12/05 07:36:38;;;;;;;11.23;5.85;;;;;;;;;;4997429;28;20050;-64
2022/12/05 07:39:06;;;;;;;10.38;5.93;;;;;;;;;;5001929;28;21067;-64
2022/12/05 07:41:32;;;;;;;9.65;5.70;;;;;;;;;;4996980;28;20057;-64
2022/12/05 07:43:59;;;;;;;9.77;6.00;;;;;;;;;;4994088;28;20054;-63
2022/12/05 07:46:27;;;;;;;9.88;6.40;;;;;;;;;;4998172;28;20050;-65
2022/12/05 07:48:56;;;;;;;23.73;5.88;;;;;;;;;;5000048;28;20076;-64
2022/12/05 07:51:22;;;;;;;7.97;5.45;;;;;;;;;;4997218;28;20045;-66
2022/12/05 07:53:49;;;;;;;12.77;5.70;;;;;;;;;;4999835;28;20248;-66
2022/12/05 07:56:17;;;;;;;11.75;5.60;;;;;;;;;;4998530;28;20046;-66
2022/12/05 07:58:44;;;;;;;10.70;5.55;;;;;;;;;;4995720;28;20050;-64
2022/12/05 08:01:14;;;;;;;7.88;5.28;;;;;;;;;;5002737;28;20195;-64
2022/12/05 08:03:40;;;;;;;8.13;5.15;;;;;;;;;;4994350;28;20084;-63
2022/12/05 08:06:12;;;;;;;8.50;5.15;;;;;;;;;;4985876;28;20046;-64
2022/12/05 08:08:38;;;;;;;10.60;5.07;;;;;;;;;;4997930;28;20695;-66
2022/12/05 08:11:34;;;;;;;10.63;5.22;;;;;;;;;;4995796;28;20088;-65
2022/12/05 08:14:02;;;;;;;9.95;5.35;;;;;;;;;;5002125;28;20057;-64
2022/12/05 08:16:30;;;;;;;7.50;5.03;;;;;;;;;;4997675;28;20531;-65
2022/12/05 08:19:00;;;;;;;9.90;5.03;;;;;;;;;;4996792;28;20103;-69
2022/12/05 08:21:26;;;;;;;10.73;5.07;;;;;;;;;;4999830;28;20054;-63
2022/12/05 08:23:52;;;;;;;8.45;5.43;;;;;;;;;;5001583;28;20136;-63
2022/12/05 08:26:23;;;;;;;9.63;4.95;;;;;;;;;;5000942;28;20069;-66
2022/12/05 08:28:57;;;;;;;8.10;5.30;;;;;;;;;;5002078;28;20046;-66
2022/12/05 08:31:24;;;;;;;7.70;5.30;;;;;;;;;;5000752;28;20061;-66
2022/12/05 08:33:52;;;;;;;8.23;5.20;;;;;;;;;;5000751;28;20056;-63
2022/12/05 08:36:18;;;;;;;12.02;5.60;;;;;;;;;;5002366;28;20046;-64
2022/12/05 08:38:45;;;;;;;9.30;5.80;;;;;;;;;;5003606;28;20049;-65
2022/12/05 08:41:14;;;;;;;10.10;5.80;;;;;;;;;;5001588;28;20446;-64
2022/12/05 08:43:40;;;;;;;8.52;5.45;;;;;;;;;;4997891;28;20505;-66
2022/12/05 08:46:06;;;;;;;10.00;5.93;;;;;;;;;;4993880;28;20509;-65
2022/12/05 08:48:34;;;;;;;12.32;5.97;;;;;;;;;;4998808;28;20152;-65
2022/12/05 08:51:08;;;;;;;10.90;6.15;;;;;;;;;;5005444;28;20070;-65
2022/12/05 08:53:35;;;;;;;12.82;5.38;;;;;;;;;;5002841;28;20052;-65
2022/12/05 08:56:06;;;;;;;12.18;5.65;;;;;;;;;;4996730;28;20061;-66
2022/12/05 08:58:33;;;;;;;11.52;5.50;;;;;;;;;;4999291;28;20893;-65
2022/12/05 09:01:03;;;;;;;8.23;5.22;;;;;;;;;;4999856;28;20542;-64
2022/12/05 09:03:29;;;;;;;7.40;5.18;;;;;;;;;;4998058;28;20048;-65
2022/12/05 09:06:08;;;;;;;11.68;5.22;;;;;;;;;;4998399;28;20053;-65
2022/12/05 09:08:35;;;;;;;11.93;6.03;;;;;;;;;;4983715;28;20057;-64
2022/12/05 09:11:05;;;;;;;12.02;6.03;;;;;;;;;;5002816;28;20114;-65
2022/12/05 09:13:31;;;;;;;10.07;5.70;;;;;;;;;;4980364;28;20046;-64
2022/12/05 09:15:57;;;;;;;10.90;5.68;;;;;;;;;;4997011;28;20072;-63
2022/12/05 09:18:23;;;;;;;17.48;6.30;;;;;;;;;;5000198;28;20042;-69
2022/12/05 09:20:49;;;;;;;33.60;6.50;;;;;;;;;;5000259;28;20103;-67
2022/12/05 09:23:15;;;;;;;16.08;6.22;;;;;;;;;;4995887;28;20116;-65
2022/12/05 09:25:41;;;;;;;15.02;7.03;;;;;;;;;;5000281;28;20212;-63
2022/12/05 09:28:07;;;;;;;12.40;5.53;;;;;;;;;;4966559;28;20061;-65
2022/12/05 09:30:33;;;;;;;16.70;6.05;;;;;;;;;;5005733;28;20077;-64
2022/12/05 09:32:59;;;;;;;9.55;5.78;;;;;;;;;;5000176;28;20402;-66
2022/12/05 09:35:25;;;;;;;8.63;5.10;;;;;;;;;;4983532;28;20046;-65
2022/12/05 09:37:54;;;;;;;9.27;5.40;;;;;;;;;;5001401;28;20046;-64
2022/12/05 09:40:20;;;;;;;10.77;5.57;;;;;;;;;;5002694;28;20042;-69
2022/12/05 09:43:05;;;;;;;9.18;5.90;;;;;;;;;;5002974;28;20054;-67
2022/12/05 09:45:50;;;;;;;8.82;5.28;;;;;;;;;;5005977;28;20061;-67
2022/12/05 09:48:21;;;;;;;13.63;6.07;;;;;;;;;;5001186;28;20045;-67
2022/12/05 09:50:57;;;;;;;12.55;5.32;;;;;;;;;;5007921;28;20056;-68
2022/12/05 09:53:34;;;;;;;7.75;5.80;;;;;;;;;;5002258;28;20042;-67
2022/12/05 09:56:28;;;;;;;10.07;6.05;;;;;;;;;;4995694;28;20046;-62
2022/12/05 09:59:01;;;;;;;10.20;6.25;;;;;;;;;;4999801;28;20057;-64
2022/12/05 10:01:42;;;;;;;16.77;6.43;;;;;;;;;;5007500;28;20679;-65
2022/12/05 10:05:00;;;;;;;8.38;5.68;;;;;;;;;;5004376;28;20053;-65
2022/12/05 10:07:26;;;;;;;11.15;6.35;;;;;;;;;;4952130;28;20059;-67
2022/12/05 10:09:58;;;;;;;9.98;6.32;;;;;;;;;;4961735;28;20151;-67
2022/12/05 10:13:01;;;;;;;10.02;6.78;;;;;;;;;;4961865;28;20051;-63
2022/12/05 10:15:27;;;;;;;14.25;7.10;;;;;;;;;;4966249;28;20137;-63
2022/12/05 10:18:08;;;;;;;12.18;7.80;;;;;;;;;;4962813;28;20153;-66
2022/12/05 10:20:48;;;;;;;14.05;8.30;;;;;;;;;;4948917;28;20418;-64
2022/12/05 10:23:21;;;;;;;13.52;8.27;;;;;;;;;;4965368;28;20078;-65
2022/12/05 10:25:54;;;;;;;14.77;8.52;;;;;;;;;;4957588;28;20050;-63
2022/12/05 10:28:46;;;;;;;20.45;7.90;;;;;;;;;;4961121;28;20189;-63
2022/12/05 10:31:16;;;;;;;13.25;8.68;;;;;;;;;;4954584;28;20047;-62
2022/12/05 10:33:48;;;;;;;19.73;8.68;;;;;;;;;;4961184;28;20059;-65
2022/12/05 10:36:14;;;;;;;15.18;8.02;;;;;;;;;;4957610;28;20484;-62
2022/12/05 10:38:43;;;;;;;13.90;7.45;;;;;;;;;;4985020;28;20123;-64
2022/12/05 10:41:13;;;;;;;12.45;6.70;;;;;;;;;;4998711;28;20118;-62
2022/12/05 10:43:41;;;;;;;12.30;6.45;;;;;;;;;;5005294;28;20125;-64
2022/12/05 10:46:09;;;;;;;14.55;6.80;;;;;;;;;;4998627;28;20125;-64
2022/12/05 10:48:37;;;;;;;13.73;6.32;;;;;;;;;;5003100;28;20053;-65
2022/12/05 10:51:04;;;;;;;12.85;6.00;;;;;;;;;;5004000;28;20050;-61
2022/12/05 10:53:43;;;;;;;13.23;5.85;;;;;;;;;;5005907;28;20072;-65
2022/12/05 10:56:35;;;;;;;13.02;6.72;;;;;;;;;;4998484;28;20484;-68
2022/12/05 10:59:00;;;;;;;12.32;5.95;;;;;;;;;;4982309;28;20149;-64
2022/12/05 11:01:27;;;;;;;12.50;6.68;;;;;;;;;;4995961;28;20101;-60
2022/12/05 11:03:58;;;;;;;14.90;5.90;;;;;;;;;;4990808;28;20061;-66
2022/12/05 11:06:27;;;;;;;9.65;5.68;;;;;;;;;;4992465;28;20153;-62
2022/12/05 11:09:01;;;;;;;6.97;4.35;;;;;;;;;;4992359;28;20501;-64
2022/12/05 11:11:28;;;;;;;;;;;;;;;;;;4996661;28;20045;-63
2022/12/05 11:14:28;;;;;;;11.05;6.10;;;;;;;;;;4996836;28;19930;-65
2022/12/05 11:16:59;;;;;;;10.15;4.85;;;;;;;;;;4976119;28;20053;-64
2022/12/05 11:19:30;;;;;;;12.63;4.80;;;;;;;;;;4995512;28;20141;-65
2022/12/05 11:21:57;;;;;;;11.98;4.90;;;;;;;;;;5004217;28;21094;-66
2022/12/05 11:24:29;;;;;;;8.45;5.20;;;;;;;;;;5002472;28;20208;-64
2022/12/05 11:26:58;;;;;;;8.80;4.65;;;;;;;;;;4982385;28;20050;-63
2022/12/05 11:29:36;;;;;;;8.98;4.20;;;;;;;;;;4988686;28;20488;-65
2022/12/05 11:32:17;;;;;;;15.27;4.35;;;;;;;;;;4994333;28;20053;-64
2022/12/05 11:35:05;;;;;;;7.85;4.68;;;;;;;;;;5001422;28;20076;-65
2022/12/05 11:38:13;;;;;;;7.60;4.50;;;;;;;;;;4998621;28;20196;-65
2022/12/05 11:40:57;;;;;;;8.07;4.53;;;;;;;;;;4924887;29;20091;-65
2022/12/05 11:43:29;;;;;;;10.90;4.40;;;;;;;;;;4924077;29;20534;-64
2022/12/05 11:46:19;;;;;;;7.45;4.47;;;;;;;;;;4925394;29;20047;-66
2022/12/05 11:49:06;;;;;;;8.70;5.00;;;;;;;;;;4919301;29;20060;-68
2022/12/05 11:51:46;;;;;;;8.48;4.72;;;;;;;;;;4922737;29;20059;-64
2022/12/05 11:54:41;;;;;;;14.20;4.80;;;;;;;;;;4926544;29;20052;-67
2022/12/05 11:57:21;;;;;;;11.60;4.70;;;;;;;;;;4921303;29;20715;-66
2022/12/05 12:00:11;;;;;;;14.85;4.90;;;;;;;;;;4925885;29;20115;-65
2022/12/05 12:02:56;;;;;;;24.20;4.80;;;;;;;;;;4918421;29;20741;-68
2022/12/05 12:05:57;;;;;;;10.38;4.82;;;;;;;;;;4917732;29;20733;-63
2022/12/05 12:08:30;;;;;;;7.97;4.60;;;;;;;;;;4923361;29;20107;-65
2022/12/05 12:11:05;;;;;;;11.63;5.00;;;;;;;;;;4944032;28;20073;-62
2022/12/05 12:13:59;;;;;;;9.52;4.65;;;;;;;;;;5003503;28;20049;-66
2022/12/05 12:16:44;;;;;;;8.67;4.67;;;;;;;;;;4996134;28;20057;-66
2022/12/05 12:19:09;;;;;;;;;;;;;;;;;;4993447;28;20073;-67
2022/12/05 12:21:58;;;;;;;8.45;4.20;;;;;;;;;;4998156;28;19926;-67
2022/12/05 12:24:47;;;;;;;9.10;4.95;;;;;;;;;;4998168;28;20050;-63
2022/12/05 12:27:51;;;;;;;10.63;5.22;;;;;;;;;;4998261;28;20097;-65
2022/12/05 12:30:26;;;;;;;9.98;4.68;;;;;;;;;;5000019;28;20054;-64
2022/12/05 12:33:21;;;;;;;8.05;4.70;;;;;;;;;;4995434;28;20057;-64
2022/12/05 12:36:00;;;;;;;12.50;5.72;;;;;;;;;;4994320;28;20058;-64
2022/12/05 12:38:46;;;;;;;10.85;4.63;;;;;;;;;;4996796;28;20042;-63
2022/12/05 12:41:53;;;;;;;9.43;4.88;;;;;;;;;;4993298;28;20152;-64
2022/12/05 12:44:38;;;;;;;14.63;5.60;;;;;;;;;;4952623;28;20043;-65
2022/12/05 12:47:18;;;;;;;9.52;5.18;;;;;;;;;;4959193;28;20150;-64
2022/12/05 12:49:56;;;;;;;10.35;5.15;;;;;;;;;;4961088;28;20535;-68
2022/12/05 12:52:26;;;;;;;10.55;5.50;;;;;;;;;;4964457;28;20101;-68
2022/12/05 12:54:55;;;;;;;13.88;5.63;;;;;;;;;;4963884;28;20105;-65
2022/12/05 12:57:30;;;;;;;9.48;4.20;;;;;;;;;;4955975;28;20605;-63
2022/12/05 13:00:20;;;;;;;9.07;4.40;;;;;;;;;;4958687;28;20050;-65
2022/12/05 13:03:07;;;;;;;10.00;4.57;;;;;;;;;;4957441;28;20062;-65
2022/12/05 13:05:48;;;;;;;11.82;4.93;;;;;;;;;;4961521;28;20058;-66
2022/12/05 13:08:39;;;;;;;10.30;4.72;;;;;;;;;;4953869;28;20061;-65
2022/12/05 13:11:09;;;;;;;7.78;4.90;;;;;;;;;;4955984;28;20074;-64
2022/12/05 13:13:42;;;;;;;9.65;4.38;;;;;;;;;;4959395;28;20116;-65
2022/12/05 13:16:12;;;;;;;8.63;4.70;;;;;;;;;;4962529;28;20494;-64
2022/12/05 13:18:38;;;;;;;9.85;4.70;;;;;;;;;;4964050;28;20564;-71
2022/12/05 13:21:09;;;;;;;6.88;4.28;;;;;;;;;;4965696;28;20543;-68
2022/12/05 13:23:58;;;;;;;6.45;4.18;;;;;;;;;;4995152;28;20144;-66
2022/12/05 13:26:24;;;;;;;6.60;3.85;;;;;;;;;;4991438;28;20571;-65
2022/12/05 13:28:56;;;;;;;8.60;4.30;;;;;;;;;;4975486;28;20038;-67
2022/12/05 13:31:44;;;;;;;9.98;3.72;;;;;;;;;;4998487;28;20853;-64
2022/12/05 13:34:28;;;;;;;7.95;3.88;;;;;;;;;;5006793;28;20058;-66
2022/12/05 13:42:36;;;;;;;8.55;4.18;;;;;;;;;;4997936;28;20053;-67
2022/12/05 13:45:04;;;;;;;7.65;4.00;;;;;;;;;;5003402;28;20057;-67
2022/12/05 13:47:52;;;;;;;11.30;4.45;;;;;;;;;;4998517;28;20078;-67
2022/12/05 13:50:32;;;;;;;8.23;4.00;;;;;;;;;;5002191;28;20077;-66
2022/12/05 13:53:03;;;;;;;9.63;4.18;;;;;;;;;;4987800;28;20089;-67
2022/12/05 13:55:34;;;;;;;5.57;3.83;;;;;;;;;;5006113;28;20050;-66
2022/12/05 13:58:02;;;;;;;11.05;4.60;;;;;;;;;;5003691;28;20132;-61
2022/12/05 14:00:30;;;;;;;8.73;4.70;;;;;;;;;;4996496;28;20466;-65
2022/12/05 14:03:01;;;;;;;8.13;4.13;;;;;;;;;;4991578;28;20065;-66
2022/12/05 14:05:41;;;;;;;8.68;4.07;;;;;;;;;;4997224;28;20050;-66
2022/12/05 14:08:33;;;;;;;11.10;4.22;;;;;;;;;;4983259;28;20064;-65
2022/12/05 14:11:00;;;;;;;8.52;4.32;;;;;;;;;;5006728;28;20514;-64
2022/12/05 14:13:26;;;;;;;7.85;4.38;;;;;;;;;;5005087;28;20050;-65
2022/12/05 14:15:53;;;;;;;10.32;4.13;;;;;;;;;;5005647;28;20443;-65
2022/12/05 14:18:25;;;;;;;9.48;3.90;;;;;;;;;;5007334;28;20079;-66
2022/12/05 14:21:06;;;;;;;14.38;4.63;;;;;;;;;;5004029;28;20490;-70
2022/12/05 14:23:53;;;;;;;17.52;4.95;;;;;;;;;;4998851;28;20054;-65
2022/12/05 14:27:05;;;;;;;10.52;5.05;;;;;;;;;;5000464;28;20924;-65
2022/12/05 14:30:11;;;;;;;9.23;4.40;;;;;;;;;;5002626;28;20053;-64
2022/12/05 14:32:39;;;;;;;;;;;;;;;;;;4997908;28;20058;-67
2022/12/05 14:35:17;;;;;;;9.57;4.47;;;;;;;;;;5003079;28;20712;-65
2022/12/05 14:37:56;;;;;;;11.70;5.00;;;;;;;;;;5001282;28;20161;-65
2022/12/05 14:40:32;;;;;;;12.25;5.57;;;;;;;;;;5003292;28;20054;-63
2022/12/05 14:43:19;;;;;;;14.65;5.65;;;;;;;;;;4980895;28;20045;-61
2022/12/05 14:46:06;;;;;;;10.00;5.18;;;;;;;;;;4995165;28;20117;-64
2022/12/05 14:48:37;;;;;;;10.48;4.90;;;;;;;;;;4999831;28;20145;-61
2022/12/05 14:51:28;;;;;;;10.75;5.10;;;;;;;;;;5001395;28;20038;-66
2022/12/05 14:53:54;;;;;;;11.77;5.32;;;;;;;;;;5002985;28;20085;-64
2022/12/05 14:56:26;;;;;;;10.52;4.80;;;;;;;;;;4996504;28;20060;-64
2022/12/05 14:58:55;;;;;;;8.65;4.70;;;;;;;;;;5004070;28;20200;-62
2022/12/05 15:01:23;;;;;;;13.13;5.05;;;;;;;;;;5001165;28;20079;-67
2022/12/05 15:04:11;;;;;;;11.60;5.68;;;;;;;;;;5000410;28;20050;-64
2022/12/05 15:06:51;;;;;;;14.70;5.50;;;;;;;;;;5000655;28;20061;-63
2022/12/05 15:09:35;;;;;;;9.00;4.95;;;;;;;;;;4995658;28;20304;-63
2022/12/05 15:12:05;;;;;;;11.38;4.70;;;;;;;;;;4994556;28;20767;-63
2022/12/05 15:14:38;;;;;;;8.25;4.53;;;;;;;;;;4999060;28;20058;-63
2022/12/05 15:17:06;;;;;;;10.80;4.28;;;;;;;;;;4997221;28;20056;-64
2022/12/05 15:19:44;;;;;;;10.38;5.28;;;;;;;;;;4991476;28;20512;-64
2022/12/05 15:22:13;;;;;;;11.05;4.75;;;;;;;;;;4995566;28;20084;-62
2022/12/05 15:24:39;;;;;;;8.90;4.63;;;;;;;;;;4981556;28;20061;-64